Time;durP1;ratioP1;P1;durP2;ratioP2;P2;SDS_P1;SDS_P2;PMS_P1;PMS_P2;Temp;Humidity;BMP_temperature;BMP_pressure;BME280_temperature;BME280_humidity;BME280_pressure;Samples;Min_cycle;Max_cycle;Signal;HPM_P1;HPM_P2
2022/10/19 00:02:04;;;;;;;8.45;3.35;;;11.00;99.90;;;;;;4950579;28;20036;-74
2022/10/19 00:04:30;;;;;;;8.80;3.53;;;11.00;99.90;;;;;;4952526;28;20042;-74
2022/10/19 00:06:56;;;;;;;22.80;3.67;;;11.00;99.90;;;;;;4955820;28;20039;-74
2022/10/19 00:09:21;;;;;;;13.88;3.13;;;11.00;99.90;;;;;;4955815;28;20110;-74
2022/10/19 00:11:49;;;;;;;16.13;3.28;;;10.90;99.90;;;;;;4949071;28;20028;-74
2022/10/19 00:14:18;;;;;;;13.15;3.22;;;11.00;99.90;;;;;;4948055;28;20465;-74
2022/10/19 00:16:48;;;;;;;5.50;3.22;;;10.90;99.90;;;;;;4951856;28;20102;-74
2022/10/19 00:19:20;;;;;;;11.48;3.17;;;10.90;99.90;;;;;;4941601;28;20067;-74
2022/10/19 00:21:47;;;;;;;5.85;3.55;;;10.90;99.90;;;;;;4949063;28;20069;-74
2022/10/19 00:24:12;;;;;;;7.20;3.22;;;10.90;99.90;;;;;;4954327;28;20106;-74
2022/10/19 00:26:38;;;;;;;13.85;3.70;;;10.80;99.90;;;;;;4957976;28;20038;-74
2022/10/19 00:29:06;;;;;;;11.98;3.40;;;10.80;99.90;;;;;;4960570;28;20039;-72
2022/10/19 00:31:33;;;;;;;13.43;3.55;;;10.80;99.90;;;;;;4961299;28;20079;-74
2022/10/19 00:33:59;;;;;;;12.18;3.97;;;10.80;99.90;;;;;;4960393;28;20038;-74
2022/10/19 00:36:28;;;;;;;8.10;3.25;;;10.80;99.90;;;;;;4956755;28;20035;-75
2022/10/19 00:38:54;;;;;;;10.70;3.72;;;10.90;99.90;;;;;;4952254;28;20038;-74
2022/10/19 00:41:22;;;;;;;8.52;3.67;;;10.80;99.90;;;;;;4961716;28;20091;-73
2022/10/19 00:44:00;;;;;;;21.85;4.28;;;10.80;99.90;;;;;;4959713;28;20031;-74
2022/10/19 00:46:30;;;;;;;13.68;4.50;;;10.70;99.90;;;;;;4953400;28;20035;-74
2022/10/19 00:49:01;;;;;;;9.63;4.28;;;10.70;99.90;;;;;;4955330;28;20028;-74
2022/10/19 00:51:30;;;;;;;10.52;3.72;;;10.70;99.90;;;;;;4965457;28;20644;-73
2022/10/19 00:53:56;;;;;;;15.93;3.47;;;10.70;99.90;;;;;;4960292;28;20031;-73
2022/10/19 00:56:22;;;;;;;7.13;3.30;;;10.70;99.90;;;;;;4959370;28;20421;-74
2022/10/19 00:58:48;;;;;;;6.30;3.50;;;10.70;99.90;;;;;;4956290;28;20065;-74
2022/10/19 01:01:19;;;;;;;6.72;3.10;;;10.70;99.90;;;;;;4954478;28;20106;-75
2022/10/19 01:03:47;;;;;;;11.10;3.53;;;10.60;99.90;;;;;;4956894;28;20050;-74
2022/10/19 01:06:15;;;;;;;11.50;3.75;;;10.60;99.90;;;;;;4948813;28;20066;-74
2022/10/19 01:08:41;;;;;;;6.13;3.13;;;10.60;99.90;;;;;;4948094;28;20027;-72
2022/10/19 01:11:44;;;;;;;12.23;3.20;;;10.60;99.90;;;;;;4953834;28;20090;-74
2022/10/19 01:14:28;;;;;;;9.63;3.45;;;10.50;99.90;;;;;;4957444;28;20031;-74
2022/10/19 01:17:17;;;;;;;7.50;3.13;;;10.40;99.90;;;;;;4958636;28;20047;-74
2022/10/19 01:20:04;;;;;;;9.77;3.15;;;10.40;99.90;;;;;;4952675;28;21351;-75
2022/10/19 01:22:44;;;;;;;8.40;3.13;;;10.30;99.90;;;;;;4961814;28;20051;-74
2022/10/19 01:25:18;;;;;;;8.27;3.28;;;10.30;99.90;;;;;;4958222;28;20023;-75
2022/10/19 01:28:28;;;;;;;7.10;3.35;;;10.30;99.90;;;;;;4960125;28;20063;-76
2022/10/19 01:31:08;;;;;;;9.98;4.45;;;10.30;99.90;;;;;;4923627;29;20046;-74
2022/10/19 01:33:36;;;;;;;14.68;4.22;;;10.20;99.90;;;;;;4953138;28;20028;-74
2022/10/19 01:36:28;;;;;;;12.15;4.03;;;10.10;99.90;;;;;;4957304;28;20027;-74
2022/10/19 01:39:20;;;;;;;11.32;4.13;;;10.10;99.90;;;;;;4955941;28;20050;-74
2022/10/19 01:41:57;;;;;;;15.75;4.22;;;10.10;99.90;;;;;;4972439;28;20037;-75
2022/10/19 01:44:36;;;;;;;8.98;4.47;;;10.10;99.90;;;;;;4955579;28;20065;-74
2022/10/19 01:47:21;;;;;;;12.85;3.75;;;10.10;99.90;;;;;;4955199;28;20038;-74
2022/10/19 01:49:54;;;;;;;6.95;3.80;;;10.00;99.90;;;;;;4963740;28;20030;-74
2022/10/19 01:52:24;;;;;;;10.27;4.13;;;10.00;99.90;;;;;;4953062;28;20024;-75
2022/10/19 01:54:55;;;;;;;10.63;3.65;;;10.00;99.90;;;;;;4953023;28;20031;-73
2022/10/19 01:57:27;;;;;;;7.85;3.05;;;10.00;99.90;;;;;;4951340;28;20015;-74
2022/10/19 01:59:54;;;;;;;5.50;3.17;;;10.00;99.90;;;;;;4955191;28;20102;-74
2022/10/19 02:02:21;;;;;;;10.63;3.50;;;9.90;99.90;;;;;;4951948;28;20035;-75
2022/10/19 02:04:49;;;;;;;12.00;3.70;;;9.80;99.90;;;;;;4948399;28;20142;-75
2022/10/19 02:07:21;;;;;;;10.60;3.78;;;9.80;99.90;;;;;;4960191;28;20027;-74
2022/10/19 02:09:47;;;;;;;7.40;2.90;;;9.60;99.90;;;;;;4958760;28;20460;-75
2022/10/19 02:12:17;;;;;;;10.73;2.97;;;9.60;99.90;;;;;;4957790;28;20031;-74
2022/10/19 02:14:48;;;;;;;7.88;2.63;;;9.50;99.90;;;;;;4953324;28;20023;-75
2022/10/19 02:17:20;;;;;;;5.50;2.70;;;9.40;99.90;;;;;;4954751;28;20024;-74
2022/10/19 02:19:48;;;;;;;10.70;2.58;;;9.30;99.90;;;;;;4947383;28;20023;-74
2022/10/19 02:22:13;;;;;;;4.80;2.38;;;9.20;99.90;;;;;;4950030;28;20027;-74
2022/10/19 02:24:39;;;;;;;4.53;2.40;;;9.20;99.90;;;;;;4951057;28;20417;-75
2022/10/19 02:27:08;;;;;;;7.45;3.10;;;9.10;99.90;;;;;;4959376;28;20043;-75
2022/10/19 02:29:36;;;;;;;8.48;2.50;;;9.10;99.90;;;;;;4956228;28;20120;-74
2022/10/19 02:32:02;;;;;;;10.07;3.40;;;9.10;99.90;;;;;;4951758;28;20083;-75
2022/10/19 02:34:29;;;;;;;10.88;3.15;;;9.00;99.90;;;;;;4960308;28;20019;-75
2022/10/19 02:36:54;;;;;;;7.15;3.08;;;9.00;99.90;;;;;;4951132;28;20765;-75
2022/10/19 02:39:20;;;;;;;8.02;3.20;;;9.10;99.90;;;;;;4954607;28;20039;-75
2022/10/19 02:41:55;;;;;;;7.70;3.30;;;9.10;99.90;;;;;;4952616;28;20085;-75
2022/10/19 02:44:41;;;;;;;10.10;2.75;;;9.10;99.90;;;;;;4949643;28;20023;-75
2022/10/19 02:47:14;;;;;;;5.20;2.72;;;9.10;99.90;;;;;;4951263;28;20113;-74
2022/10/19 02:49:41;;;;;;;11.50;2.83;;;9.10;99.90;;;;;;4957006;28;20454;-75
2022/10/19 02:52:10;;;;;;;9.48;2.60;;;9.00;99.90;;;;;;4950708;28;20392;-75
2022/10/19 02:54:40;;;;;;;4.90;2.53;;;9.00;99.90;;;;;;4958258;28;20034;-75
2022/10/19 02:57:19;;;;;;;6.10;2.63;;;8.90;99.90;;;;;;4948315;28;20039;-71
2022/10/19 02:59:47;;;;;;;16.35;4.22;;;8.90;99.90;;;;;;4953321;28;20032;-73
2022/10/19 03:02:16;;;;;;;6.35;2.30;;;8.80;99.90;;;;;;4956953;28;20039;-74
2022/10/19 03:04:44;;;;;;;8.23;2.75;;;8.80;99.90;;;;;;4969837;28;20043;-74
2022/10/19 03:07:14;;;;;;;8.52;3.00;;;8.80;99.90;;;;;;4951139;28;20091;-74
2022/10/19 03:09:43;;;;;;;6.00;3.00;;;8.70;99.90;;;;;;4946398;28;20631;-74
2022/10/19 03:12:09;;;;;;;4.95;2.67;;;8.60;99.90;;;;;;4942139;28;20465;-74
2022/10/19 03:14:35;;;;;;;9.05;2.58;;;8.60;99.90;;;;;;4950578;28;20041;-74
2022/10/19 03:17:00;;;;;;;4.38;2.15;;;8.60;99.90;;;;;;4952667;28;20032;-75
2022/10/19 03:19:26;;;;;;;4.72;2.42;;;8.60;99.90;;;;;;4958464;28;20471;-74
2022/10/19 03:21:52;;;;;;;13.32;2.92;;;8.70;99.90;;;;;;4959121;28;20030;-73
2022/10/19 03:24:20;;;;;;;7.88;2.70;;;8.70;99.90;;;;;;4953809;28;20106;-74
2022/10/19 03:26:45;;;;;;;4.85;2.65;;;8.70;99.90;;;;;;4951707;28;20468;-74
2022/10/19 03:29:11;;;;;;;7.07;2.95;;;8.60;99.90;;;;;;4956620;28;20028;-74
2022/10/19 03:31:36;;;;;;;6.40;2.63;;;8.60;99.90;;;;;;4943562;28;20606;-75
2022/10/19 03:34:02;;;;;;;5.90;2.80;;;8.60;99.90;;;;;;4948768;28;20074;-71
2022/10/19 03:36:33;;;;;;;5.72;3.13;;;8.70;99.90;;;;;;4955750;28;20046;-74
2022/10/19 03:39:01;;;;;;;10.00;3.83;;;8.70;99.90;;;;;;4957002;28;20035;-75
2022/10/19 03:41:29;;;;;;;5.40;3.00;;;8.70;99.90;;;;;;4950982;28;20027;-73
2022/10/19 03:43:55;;;;;;;6.18;3.22;;;8.70;99.90;;;;;;4959196;28;20053;-74
2022/10/19 03:46:21;;;;;;;7.40;3.55;;;8.60;99.90;;;;;;4958945;28;20023;-74
2022/10/19 03:48:47;;;;;;;4.97;4.13;;;8.60;99.90;;;;;;4952272;28;20357;-75
2022/10/19 03:51:18;;;;;;;7.22;3.63;;;8.60;99.90;;;;;;4956834;28;20027;-75
2022/10/19 03:53:45;;;;;;;9.23;3.65;;;8.60;99.90;;;;;;4954932;28;20050;-74
2022/10/19 03:56:18;;;;;;;7.32;3.78;;;8.70;99.90;;;;;;4955202;28;20027;-75
2022/10/19 03:58:46;;;;;;;14.35;4.30;;;8.70;99.90;;;;;;4948655;28;20023;-74
2022/10/19 04:01:17;;;;;;;8.38;4.20;;;8.70;99.90;;;;;;4955755;28;20513;-74
2022/10/19 04:03:45;;;;;;;11.07;4.22;;;8.70;99.90;;;;;;4952221;28;20039;-75
2022/10/19 04:06:19;;;;;;;7.53;4.43;;;8.70;99.90;;;;;;4955117;28;20045;-75
2022/10/19 04:08:49;;;;;;;10.75;4.57;;;8.70;99.90;;;;;;4962782;28;20439;-71
2022/10/19 04:11:22;;;;;;;9.65;4.88;;;8.80;99.90;;;;;;4949076;28;20322;-75
2022/10/19 04:13:49;;;;;;;7.53;4.40;;;8.80;99.90;;;;;;4956514;28;20441;-76
2022/10/19 04:16:16;;;;;;;6.65;4.85;;;8.80;99.90;;;;;;4958158;28;20114;-75
2022/10/19 04:18:44;;;;;;;8.55;5.25;;;8.80;99.90;;;;;;4955892;28;20145;-75
2022/10/19 04:21:21;;;;;;;8.35;4.78;;;8.80;99.90;;;;;;4960573;28;20368;-74
2022/10/19 04:23:50;;;;;;;6.38;3.90;;;8.70;99.90;;;;;;4960065;28;20035;-77
2022/10/19 04:26:16;;;;;;;7.85;3.40;;;8.70;99.90;;;;;;4958014;28;20046;-74
2022/10/19 04:28:43;;;;;;;6.45;3.25;;;8.60;99.90;;;;;;4954934;28;20385;-81
2022/10/19 04:31:10;;;;;;;6.63;3.47;;;8.60;99.90;;;;;;4960478;28;20138;-80
2022/10/19 04:33:36;;;;;;;4.72;3.50;;;8.50;99.90;;;;;;4963068;28;20031;-83
2022/10/19 04:36:04;;;;;;;5.22;3.67;;;8.50;99.90;;;;;;4959574;28;20046;-80
2022/10/19 04:38:33;;;;;;;6.72;4.35;;;8.40;99.90;;;;;;4958977;28;20027;-77
2022/10/19 04:41:03;;;;;;;6.20;3.90;;;8.40;99.90;;;;;;4959580;28;20441;-82
2022/10/19 04:43:29;;;;;;;13.15;4.28;;;8.30;99.90;;;;;;4950943;28;20035;-80
2022/10/19 04:45:55;;;;;;;7.38;4.43;;;8.40;99.90;;;;;;4959197;28;20033;-82
2022/10/19 04:48:21;;;;;;;8.23;3.60;;;8.40;99.90;;;;;;4959300;28;20399;-81
2022/10/19 04:50:46;;;;;;;4.88;3.97;;;8.40;99.90;;;;;;4953334;28;20028;-82
2022/10/19 04:53:12;;;;;;;8.25;4.28;;;8.40;99.90;;;;;;4969592;28;20054;-80
2022/10/19 04:55:41;;;;;;;7.28;3.88;;;8.40;99.90;;;;;;4956824;28;20035;-81
2022/10/19 04:58:07;;;;;;;12.20;3.90;;;8.40;99.90;;;;;;4957229;28;20337;-82
2022/10/19 05:00:33;;;;;;;4.03;3.22;;;8.40;99.90;;;;;;4955124;28;20035;-81
2022/10/19 05:02:58;;;;;;;5.93;3.20;;;8.30;99.90;;;;;;4960151;28;20019;-81
2022/10/19 05:05:25;;;;;;;7.05;3.75;;;8.20;99.90;;;;;;4958361;28;20031;-81
2022/10/19 05:07:51;;;;;;;10.27;4.80;;;8.20;99.90;;;;;;4955829;28;20102;-83
2022/10/19 05:10:16;;;;;;;7.75;3.28;;;8.10;99.90;;;;;;4961471;28;20158;-78
2022/10/19 05:12:42;;;;;;;6.63;3.45;;;8.10;99.90;;;;;;4951677;28;20142;-79
2022/10/19 05:15:08;;;;;;;10.57;3.47;;;8.10;99.90;;;;;;4957064;28;20026;-82
2022/10/19 05:17:38;;;;;;;14.32;3.08;;;8.10;99.90;;;;;;4953038;28;20026;-81
2022/10/19 05:20:04;;;;;;;12.07;3.67;;;8.10;99.90;;;;;;4950433;28;20031;-77
2022/10/19 05:22:35;;;;;;;9.13;4.22;;;8.10;99.90;;;;;;4955087;28;20060;-83
2022/10/19 05:25:00;;;;;;;7.97;4.78;;;8.10;99.90;;;;;;4960346;28;20035;-82
2022/10/19 05:27:26;;;;;;;15.70;4.47;;;8.10;99.90;;;;;;4955256;28;20039;-83
2022/10/19 05:29:54;;;;;;;8.30;3.78;;;8.10;99.90;;;;;;4956659;28;20049;-80
2022/10/19 05:32:19;;;;;;;13.90;4.20;;;8.10;99.90;;;;;;4952142;28;20028;-83
2022/10/19 05:34:45;;;;;;;9.38;3.15;;;8.10;99.90;;;;;;4955699;28;20023;-80
2022/10/19 05:37:11;;;;;;;5.97;3.17;;;8.10;99.90;;;;;;4955660;28;20049;-81
2022/10/19 05:39:36;;;;;;;7.07;3.40;;;8.10;99.90;;;;;;4955203;28;20034;-84
2022/10/19 05:42:02;;;;;;;6.03;3.65;;;8.10;99.90;;;;;;4952891;28;20084;-82
2022/10/19 05:44:30;;;;;;;10.70;2.92;;;8.10;99.90;;;;;;4955172;28;20031;-82
2022/10/19 05:46:56;;;;;;;7.88;3.28;;;8.10;99.90;;;;;;4949834;28;20050;-81
2022/10/19 05:49:24;;;;;;;6.47;4.47;;;8.00;99.90;;;;;;4954944;28;20445;-82
2022/10/19 05:51:50;;;;;;;5.00;3.10;;;8.00;99.90;;;;;;4957956;28;20050;-81
2022/10/19 05:54:19;;;;;;;6.75;3.35;;;8.00;99.90;;;;;;4954295;28;20065;-83
2022/10/19 05:56:44;;;;;;;4.53;3.25;;;8.00;99.90;;;;;;4956289;28;20031;-79
2022/10/19 05:59:15;;;;;;;6.78;3.35;;;8.00;99.90;;;;;;4952846;28;20035;-81
2022/10/19 06:01:43;;;;;;;8.65;4.10;;;8.00;99.90;;;;;;4957069;28;20102;-79
2022/10/19 06:04:12;;;;;;;9.90;4.40;;;8.00;99.90;;;;;;4944992;28;20059;-77
2022/10/19 06:06:39;;;;;;;12.88;4.57;;;8.00;99.90;;;;;;4947784;28;20130;-83
2022/10/19 06:09:07;;;;;;;11.13;5.25;;;7.90;99.90;;;;;;4955058;28;20141;-82
2022/10/19 06:11:36;;;;;;;9.70;5.03;;;7.90;99.90;;;;;;4946703;28;20460;-79
2022/10/19 06:14:05;;;;;;;10.02;4.57;;;7.90;99.90;;;;;;4963429;28;20483;-80
2022/10/19 06:16:32;;;;;;;7.55;5.03;;;8.00;99.90;;;;;;4958304;28;20051;-83
2022/10/19 06:19:00;;;;;;;6.07;4.75;;;8.00;99.90;;;;;;4956717;28;20087;-79
2022/10/19 06:21:28;;;;;;;12.27;4.80;;;7.90;99.90;;;;;;4959712;28;20019;-82
2022/10/19 06:24:02;;;;;;;10.50;5.00;;;8.00;99.90;;;;;;4951485;28;20027;-79
2022/10/19 06:26:29;;;;;;;10.98;4.97;;;8.00;99.90;;;;;;4953080;28;20410;-78
2022/10/19 06:28:59;;;;;;;20.48;5.28;;;8.00;99.90;;;;;;4948201;28;20035;-77
2022/10/19 06:31:27;;;;;;;6.95;5.07;;;8.10;99.90;;;;;;4952439;28;20046;-82
2022/10/19 06:33:52;;;;;;;11.43;4.95;;;8.20;99.90;;;;;;4958870;28;20198;-79
2022/10/19 06:36:21;;;;;;;7.75;4.43;;;8.30;99.90;;;;;;4944867;28;20520;-83
2022/10/19 06:38:49;;;;;;;9.38;4.60;;;8.40;99.90;;;;;;4945884;28;20039;-81
2022/10/19 06:41:16;;;;;;;8.32;4.53;;;8.40;99.90;;;;;;4957026;28;20118;-83
2022/10/19 06:43:42;;;;;;;11.38;4.60;;;8.50;99.90;;;;;;4951874;28;20114;-79
2022/10/19 06:46:19;;;;;;;5.82;4.28;;;8.50;99.90;;;;;;4956932;28;20031;-78
2022/10/19 06:48:51;;;;;;;10.95;4.30;;;8.60;99.90;;;;;;4954152;28;20110;-82
2022/10/19 06:51:16;;;;;;;7.80;4.47;;;8.60;99.90;;;;;;4956300;28;20450;-78
2022/10/19 06:53:42;;;;;;;7.82;4.60;;;8.70;99.90;;;;;;4949366;28;20039;-82
2022/10/19 06:56:09;;;;;;;10.88;4.97;;;8.80;99.90;;;;;;4958877;28;20073;-78
2022/10/19 06:58:36;;;;;;;10.80;4.45;;;8.90;99.90;;;;;;4955395;28;20043;-76
2022/10/19 07:01:03;;;;;;;8.35;4.53;;;9.00;99.90;;;;;;4950533;28;20036;-78
2022/10/19 07:03:29;;;;;;;6.43;3.92;;;9.10;99.90;;;;;;4954051;28;20087;-81
2022/10/19 07:06:00;;;;;;;11.65;4.95;;;9.20;99.90;;;;;;4954400;28;20477;-78
2022/10/19 07:08:28;;;;;;;7.90;4.30;;;9.20;99.90;;;;;;4958591;28;20027;-78
2022/10/19 07:11:02;;;;;;;10.93;4.60;;;9.40;99.90;;;;;;4960440;28;20027;-82
2022/10/19 07:13:31;;;;;;;8.07;4.43;;;9.40;99.90;;;;;;4957536;28;20027;-78
2022/10/19 07:16:05;;;;;;;12.27;4.82;;;9.60;99.90;;;;;;4958846;28;20028;-84
2022/10/19 07:18:32;;;;;;;12.07;5.15;;;9.70;99.90;;;;;;4948257;28;20070;-80
2022/10/19 07:20:59;;;;;;;14.95;5.65;;;9.90;99.90;;;;;;4955106;28;20031;-83
2022/10/19 07:23:27;;;;;;;9.32;4.25;;;9.90;99.90;;;;;;4945284;28;20035;-82
2022/10/19 07:25:54;;;;;;;11.43;4.32;;;10.00;99.90;;;;;;4952555;28;20543;-79
2022/10/19 07:28:25;;;;;;;7.15;4.18;;;10.20;99.90;;;;;;4949684;28;20055;-82
2022/10/19 07:30:51;;;;;;;12.98;4.18;;;10.30;99.90;;;;;;4954105;28;20055;-78
2022/10/19 07:33:19;;;;;;;15.07;4.30;;;10.40;99.90;;;;;;4954580;28;20043;-83
2022/10/19 07:35:47;;;;;;;9.85;3.97;;;10.70;99.90;;;;;;4957177;28;20445;-83
2022/10/19 07:38:12;;;;;;;11.85;3.90;;;11.00;99.90;;;;;;4954362;28;20035;-78
2022/10/19 07:40:38;;;;;;;12.13;3.92;;;11.10;99.90;;;;;;4951707;28;20023;-80
2022/10/19 07:43:03;;;;;;;12.75;4.30;;;11.20;99.90;;;;;;4960961;28;20082;-77
2022/10/19 07:45:30;;;;;;;9.00;3.55;;;11.30;99.90;;;;;;4954961;28;20030;-83
2022/10/19 07:47:57;;;;;;;10.60;3.92;;;11.30;99.90;;;;;;4944794;28;20040;-81
2022/10/19 07:50:24;;;;;;;19.80;3.20;;;11.40;99.90;;;;;;4955301;28;20034;-81
2022/10/19 07:52:51;;;;;;;10.63;3.45;;;11.50;99.90;;;;;;4949243;28;20015;-81
2022/10/19 07:55:17;;;;;;;13.10;3.58;;;11.60;99.90;;;;;;4943057;28;20035;-79
2022/10/19 07:57:46;;;;;;;10.02;3.28;;;11.80;99.90;;;;;;4953606;28;20038;-81
2022/10/19 08:00:12;;;;;;;13.00;3.20;;;11.90;99.90;;;;;;4961517;28;20031;-81
2022/10/19 08:02:40;;;;;;;10.93;3.10;;;12.10;99.90;;;;;;4961185;28;20057;-78
2022/10/19 08:05:06;;;;;;;11.95;3.95;;;12.10;99.90;;;;;;4957431;28;20432;-80
2022/10/19 08:07:33;;;;;;;11.60;3.17;;;12.20;99.90;;;;;;4955565;28;20042;-81
2022/10/19 08:09:58;;;;;;;14.95;3.08;;;12.40;99.90;;;;;;4956369;28;20039;-79
2022/10/19 08:12:24;;;;;;;11.27;2.85;;;12.50;99.90;;;;;;4951859;28;20042;-81
2022/10/19 08:14:49;;;;;;;6.20;1.90;;;12.70;99.90;;;;;;4950621;28;20793;-82
2022/10/19 08:17:17;;;;;;;8.75;2.35;;;13.00;99.90;;;;;;4950130;28;20082;-81
2022/10/19 08:19:47;;;;;;;6.55;2.20;;;13.10;99.90;;;;;;4954900;28;20035;-81
2022/10/19 08:22:12;;;;;;;13.48;2.55;;;13.40;99.90;;;;;;4955580;28;20138;-78
2022/10/19 08:24:38;;;;;;;11.25;2.63;;;13.60;99.90;;;;;;4955292;28;20106;-78
2022/10/19 08:27:06;;;;;;;8.70;2.35;;;13.80;99.90;;;;;;4957255;28;20055;-82
2022/10/19 08:29:32;;;;;;;11.63;2.53;;;14.00;99.90;;;;;;4956181;28;20028;-83
2022/10/19 08:31:58;;;;;;;9.23;2.20;;;14.10;99.90;;;;;;4955911;28;20046;-80
2022/10/19 08:34:24;;;;;;;5.40;1.90;;;14.30;99.90;;;;;;4953514;28;20111;-79
2022/10/19 08:36:49;;;;;;;9.10;2.10;;;14.50;99.90;;;;;;4949662;28;20570;-81
2022/10/19 08:39:16;;;;;;;12.40;2.15;;;14.60;99.90;;;;;;4954874;28;20031;-80
2022/10/19 08:41:48;;;;;;;13.25;2.38;;;14.90;99.90;;;;;;4949868;28;20055;-81
2022/10/19 08:45:00;;;;;;;5.53;1.40;;;15.50;99.90;;;;;;4959247;28;20186;-81
2022/10/19 08:47:58;;;;;;;10.25;1.80;;;16.20;99.90;;;;;;4906354;29;20047;-82
2022/10/19 08:50:36;;;;;;;4.72;2.03;;;17.10;99.90;;;;;;4960456;28;20019;-81
2022/10/19 08:53:31;;;;;;;6.25;2.00;;;17.80;99.90;;;;;;4961926;28;20429;-82
2022/10/19 08:56:20;;;;;;;9.60;1.92;;;18.40;99.90;;;;;;4960547;28;20133;-78
2022/10/19 08:59:27;;;;;;;6.32;1.83;;;18.50;99.10;;;;;;4955666;28;20059;-80
2022/10/19 09:01:57;;;;;;;2.30;1.60;;;19.10;98.20;;;;;;4952094;28;20405;-72
2022/10/19 09:04:36;;;;;;;9.73;2.00;;;19.50;96.70;;;;;;4953890;28;20027;-81
2022/10/19 09:07:28;;;;;;;8.48;2.08;;;20.00;95.90;;;;;;4950804;28;20024;-79
2022/10/19 09:10:16;;;;;;;5.40;1.52;;;20.40;93.90;;;;;;4952142;28;20023;-75
2022/10/19 09:13:00;;;;;;;7.60;1.65;;;20.30;92.80;;;;;;4959886;28;20599;-77
2022/10/19 09:15:39;;;;;;;9.48;1.75;;;20.50;92.70;;;;;;4960692;28;20349;-80
2022/10/19 09:18:10;;;;;;;6.55;1.50;;;20.40;91.00;;;;;;4954745;28;20042;-79
2022/10/19 09:20:40;;;;;;;4.22;1.75;;;20.40;90.30;;;;;;4957103;28;20051;-78
2022/10/19 09:23:49;;;;;;;8.02;1.60;;;20.20;90.10;;;;;;4954638;28;20046;-77
2022/10/19 09:26:19;;;;;;;4.22;1.23;;;19.80;90.60;;;;;;4907739;28;20064;-78
2022/10/19 09:28:51;;;;;;;2.47;1.70;;;19.20;90.70;;;;;;4957327;28;20027;-77
2022/10/19 09:31:24;;;;;;;9.40;1.60;;;19.00;90.60;;;;;;4953182;28;20027;-78
2022/10/19 09:33:56;;;;;;;5.28;1.63;;;18.60;91.00;;;;;;4955083;28;20061;-76
2022/10/19 09:36:27;;;;;;;4.30;1.52;;;18.50;91.80;;;;;;4956045;28;20365;-76
2022/10/19 09:38:52;;;;;;;8.20;1.40;;;18.60;91.80;;;;;;4960499;28;20059;-78
2022/10/19 09:41:21;;;;;;;4.50;1.60;;;18.50;91.60;;;;;;4954671;28;20061;-75
2022/10/19 09:43:52;;;;;;;5.15;1.38;;;18.40;91.40;;;;;;4955774;28;20082;-76
2022/10/19 09:46:51;;;;;;;5.47;1.42;;;18.20;92.40;;;;;;4959978;28;20027;-75
2022/10/19 09:49:41;;;;;;;3.85;1.70;;;18.10;92.40;;;;;;4952390;28;20035;-78
2022/10/19 09:52:27;;;;;;;1.67;1.30;;;18.10;92.90;;;;;;4951521;28;20035;-77
2022/10/19 09:55:05;;;;;;;4.47;1.42;;;18.30;91.90;;;;;;4953867;28;20075;-78
2022/10/19 09:57:44;;;;;;;7.63;1.23;;;18.20;92.30;;;;;;4952501;28;20405;-77
2022/10/19 10:00:37;;;;;;;1.88;0.93;;;18.40;92.00;;;;;;4950665;28;20024;-76
2022/10/19 10:03:05;;;;;;;4.05;1.10;;;18.20;91.80;;;;;;4953534;28;20039;-76
2022/10/19 10:05:40;;;;;;;3.08;1.20;;;18.00;91.70;;;;;;4959117;28;20038;-77
2022/10/19 10:08:16;;;;;;;6.57;1.25;;;18.00;91.70;;;;;;4960058;28;20054;-77
2022/10/19 10:10:51;;;;;;;2.22;1.00;;;18.00;91.50;;;;;;4955471;28;20028;-79
2022/10/19 10:13:19;;;;;;;3.22;1.10;;;18.20;91.70;;;;;;4960813;28;20034;-77
2022/10/19 10:16:02;;;;;;;3.50;1.08;;;18.30;90.50;;;;;;4951290;28;20030;-76
2022/10/19 10:18:28;;;;;;;2.35;1.00;;;18.20;90.50;;;;;;4947976;28;20062;-77
2022/10/19 10:21:18;;;;;;;2.88;1.15;;;18.50;91.20;;;;;;4954345;28;20047;-77
2022/10/19 10:24:05;;;;;;;4.15;1.23;;;18.90;90.40;;;;;;4952840;28;20032;-75
2022/10/19 10:26:39;;;;;;;2.55;1.02;;;19.40;89.50;;;;;;4952993;28;20055;-76
2022/10/19 10:29:27;;;;;;;13.13;1.30;;;19.80;88.90;;;;;;4955004;28;20035;-74
2022/10/19 10:31:53;;;;;;;2.05;0.90;;;20.00;86.00;;;;;;4957588;28;20030;-77
2022/10/19 10:34:30;;;;;;;6.57;1.23;;;20.00;84.80;;;;;;4951806;28;20028;-77
2022/10/19 10:36:56;;;;;;;3.40;1.00;;;20.30;83.30;;;;;;4950806;28;20028;-78
2022/10/19 10:39:24;;;;;;;4.28;0.80;;;20.40;80.90;;;;;;4959133;28;20081;-79
2022/10/19 10:41:50;;;;;;;3.50;1.20;;;20.10;81.70;;;;;;4953731;28;20037;-75
2022/10/19 10:44:25;;;;;;;4.28;0.90;;;20.00;81.60;;;;;;4962466;28;20031;-77
2022/10/19 10:46:58;;;;;;;6.90;1.10;;;19.70;82.60;;;;;;4951272;28;20035;-77
2022/10/19 10:49:27;;;;;;;2.08;0.85;;;19.70;83.80;;;;;;4956130;28;20042;-71
2022/10/19 10:51:59;;;;;;;2.17;0.70;;;19.80;84.30;;;;;;4956382;28;20026;-79
2022/10/19 10:54:27;;;;;;;3.55;1.02;;;19.80;83.10;;;;;;4957564;28;20031;-79
2022/10/19 10:57:15;;;;;;;5.72;0.68;;;19.50;82.50;;;;;;4963222;28;20097;-79
2022/10/19 11:00:11;;;;;;;7.15;1.15;;;19.20;84.30;;;;;;4950665;28;20038;-75
2022/10/19 11:02:51;;;;;;;1.60;0.80;;;19.40;84.50;;;;;;4952135;28;20023;-78
2022/10/19 11:05:25;;;;;;;5.10;0.88;;;19.50;83.40;;;;;;4954907;28;20038;-77
2022/10/19 11:08:19;;;;;;;2.38;1.08;;;19.50;83.70;;;;;;4953472;28;20023;-74
2022/10/19 11:10:51;;;;;;;3.50;0.90;;;19.40;84.20;;;;;;4951726;28;20106;-75
2022/10/19 11:14:01;;;;;;;2.53;0.90;;;19.40;85.40;;;;;;4958264;28;20074;-76
2022/10/19 11:16:41;;;;;;;4.13;1.02;;;19.60;85.60;;;;;;4946587;28;20035;-70
2022/10/19 11:19:15;;;;;;;3.65;1.13;;;19.80;84.10;;;;;;4957097;28;20436;-76
2022/10/19 11:22:03;;;;;;;1.45;1.17;;;19.60;84.40;;;;;;4955319;28;20035;-78
2022/10/19 11:24:52;;;;;;;3.70;1.05;;;19.50;84.90;;;;;;4954963;28;20138;-78
2022/10/19 11:27:21;;;;;;;5.22;1.60;;;19.60;85.50;;;;;;4959578;28;20095;-76
2022/10/19 11:29:52;;;;;;;4.63;1.85;;;19.60;85.30;;;;;;4953693;28;20150;-75
2022/10/19 11:32:28;;;;;;;3.80;1.30;;;19.70;84.20;;;;;;4950752;28;20090;-76
2022/10/19 11:35:02;;;;;;;5.20;1.25;;;19.80;84.80;;;;;;4954759;28;20023;-75
2022/10/19 11:38:09;;;;;;;6.20;1.73;;;20.00;84.50;;;;;;4954975;28;20062;-76
2022/10/19 11:40:43;;;;;;;4.35;1.40;;;20.20;84.20;;;;;;4901051;29;20043;-76
2022/10/19 11:43:25;;;;;;;5.88;1.80;;;20.30;83.60;;;;;;4956733;28;20082;-78
2022/10/19 11:46:22;;;;;;;2.65;1.60;;;20.50;84.10;;;;;;4953226;28;20351;-75
2022/10/19 11:49:03;;;;;;;3.28;1.67;;;20.60;82.30;;;;;;4947476;28;20039;-77
2022/10/19 11:51:45;;;;;;;3.38;1.73;;;20.80;82.60;;;;;;4952587;28;20049;-75
2022/10/19 11:54:37;;;;;;;4.03;1.83;;;20.80;81.00;;;;;;4956429;28;20054;-76
2022/10/19 11:57:19;;;;;;;8.07;2.47;;;20.80;81.50;;;;;;4942342;28;20036;-77
2022/10/19 11:59:53;;;;;;;5.90;2.28;;;20.50;82.20;;;;;;4950385;28;20027;-78
2022/10/19 12:02:37;;;;;;;4.32;2.10;;;20.40;82.40;;;;;;4958407;28;20049;-76
2022/10/19 12:05:15;;;;;;;3.72;1.95;;;20.20;83.00;;;;;;4944870;28;20118;-78
2022/10/19 12:08:04;;;;;;;3.53;1.95;;;20.30;83.10;;;;;;4950877;28;20035;-78
2022/10/19 12:10:41;;;;;;;6.93;1.80;;;20.30;83.00;;;;;;4955746;28;20171;-77
2022/10/19 12:13:15;;;;;;;9.30;1.98;;;20.20;83.50;;;;;;4952279;28;20023;-70
2022/10/19 12:15:52;;;;;;;4.13;2.10;;;19.90;83.60;;;;;;4957257;28;20038;-76
2022/10/19 12:18:36;;;;;;;6.57;2.20;;;19.90;84.00;;;;;;4958232;28;20031;-77
2022/10/19 12:21:12;;;;;;;3.67;2.25;;;20.00;84.30;;;;;;4959320;28;20081;-78
2022/10/19 12:23:42;;;;;;;4.90;1.95;;;20.30;85.00;;;;;;4955381;28;20038;-76
2022/10/19 12:26:13;;;;;;;5.35;2.15;;;20.70;82.10;;;;;;4950597;28;20027;-76
2022/10/19 12:28:43;;;;;;;3.40;1.98;;;20.90;80.90;;;;;;4962340;28;20039;-75
2022/10/19 12:31:10;;;;;;;7.90;1.63;;;20.90;80.70;;;;;;4953582;28;20098;-77
2022/10/19 12:33:37;;;;;;;3.47;2.05;;;21.00;80.10;;;;;;4957219;28;20026;-72
2022/10/19 12:36:37;;;;;;;6.10;2.10;;;21.30;79.70;;;;;;4957958;28;20027;-73
2022/10/19 12:39:12;;;;;;;7.07;2.47;;;21.60;77.50;;;;;;4956460;28;20058;-73
2022/10/19 12:41:51;;;;;;;4.35;2.03;;;22.10;77.60;;;;;;4961289;28;20042;-73
2022/10/19 12:44:40;;;;;;;4.20;1.88;;;24.80;72.60;;;;;;4959636;28;20098;-74
2022/10/19 12:47:16;;;;;;;7.63;2.10;;;26.40;63.70;;;;;;4957724;28;20044;-73
2022/10/19 12:49:51;;;;;;;9.25;2.63;;;24.30;64.30;;;;;;4952460;28;20110;-74
2022/10/19 12:52:37;;;;;;;8.60;2.55;;;23.10;68.30;;;;;;4954416;28;20032;-73
2022/10/19 12:55:17;;;;;;;3.88;2.38;;;24.00;68.90;;;;;;4945605;28;20039;-73
2022/10/19 12:57:47;;;;;;;8.82;2.80;;;26.20;62.70;;;;;;4952239;28;20027;-73
2022/10/19 13:00:18;;;;;;;3.50;2.40;;;29.00;58.00;;;;;;4957144;28;20063;-74
2022/10/19 13:02:46;;;;;;;15.52;2.65;;;31.50;51.30;;;;;;4962220;28;20041;-74
2022/10/19 13:05:26;;;;;;;6.20;2.78;;;32.70;47.60;;;;;;4957327;28;20031;-74
2022/10/19 13:07:52;;;;;;;6.28;2.85;;;33.60;44.60;;;;;;4956316;28;20031;-73
2022/10/19 13:10:30;;;;;;;5.47;2.35;;;33.30;42.90;;;;;;4960139;28;20081;-74
2022/10/19 13:12:56;;;;;;;8.43;3.20;;;34.70;43.40;;;;;;4958979;28;20023;-76
2022/10/19 13:15:34;;;;;;;6.13;2.70;;;37.70;39.10;;;;;;4952786;28;20016;-73